Time;durP1;ratioP1;P1;durP2;ratioP2;P2;SDS_P1;SDS_P2;PMS_P1;PMS_P2;Temp;Humidity;BMP_temperature;BMP_pressure;BME280_temperature;BME280_humidity;BME280_pressure;Samples;Min_cycle;Max_cycle;Signal;HPM_P1;HPM_P2
2023/03/08 00:02:02;;;;;;;3.00;2.10;;;11.80;42.70;;;;;;5087486;28;45328;-68
2023/03/08 00:04:29;;;;;;;3.37;2.00;;;11.80;42.70;;;;;;5087570;28;45333;-68
2023/03/08 00:06:56;;;;;;;3.60;2.17;;;11.70;42.70;;;;;;5067538;28;45285;-68
2023/03/08 00:09:23;;;;;;;3.80;2.57;;;11.80;42.70;;;;;;5067580;28;45430;-68
2023/03/08 00:11:50;;;;;;;3.60;2.13;;;11.80;42.70;;;;;;5067028;28;46695;-68
2023/03/08 00:14:19;;;;;;;2.73;2.30;;;11.70;42.70;;;;;;5067105;28;45279;-68
2023/03/08 00:16:47;;;;;;;2.47;1.80;;;11.80;42.70;;;;;;5066986;28;45224;-68
2023/03/08 00:19:14;;;;;;;3.83;2.20;;;11.70;42.70;;;;;;5064690;28;45451;-67
2023/03/08 00:21:41;;;;;;;3.73;1.80;;;11.70;42.70;;;;;;5066909;28;45396;-68
2023/03/08 00:24:08;;;;;;;3.07;2.17;;;11.70;42.70;;;;;;5066645;28;45370;-68
2023/03/08 00:26:35;;;;;;;3.43;2.30;;;11.70;42.70;;;;;;5067014;28;45282;-68
2023/03/08 00:29:02;;;;;;;3.23;2.20;;;11.70;42.70;;;;;;5067341;28;45600;-67
2023/03/08 00:31:29;;;;;;;4.43;2.00;;;11.70;42.70;;;;;;5066743;28;46635;-67
2023/03/08 00:33:57;;;;;;;2.50;1.93;;;11.70;42.70;;;;;;5066702;28;45380;-68
2023/03/08 00:36:24;;;;;;;4.10;2.00;;;11.70;42.70;;;;;;5067032;28;45356;-67
2023/03/08 00:38:51;;;;;;;2.80;1.97;;;11.60;42.70;;;;;;5067115;28;45148;-68
2023/03/08 00:41:18;;;;;;;2.60;2.00;;;11.60;42.70;;;;;;5066683;28;46389;-68
2023/03/08 00:43:45;;;;;;;3.40;2.00;;;11.70;42.70;;;;;;5066548;28;45371;-68
2023/03/08 00:46:12;;;;;;;2.73;1.97;;;11.60;42.70;;;;;;5066822;28;45349;-67
2023/03/08 00:48:39;;;;;;;3.17;2.00;;;11.60;42.70;;;;;;5067115;28;45262;-68
2023/03/08 00:51:07;;;;;;;3.77;2.20;;;11.60;42.70;;;;;;5066459;28;45495;-67
2023/03/08 00:53:34;;;;;;;3.10;2.10;;;11.60;42.70;;;;;;5066410;28;45376;-68
2023/03/08 00:56:01;;;;;;;2.70;2.00;;;11.60;42.70;;;;;;5066615;28;45364;-67
2023/03/08 00:58:29;;;;;;;3.97;2.00;;;11.60;43.30;;;;;;5066863;28;45163;-69
2023/03/08 01:00:56;;;;;;;2.43;2.07;;;11.60;42.70;;;;;;5066430;28;45319;-68
2023/03/08 01:03:22;;;;;;;2.53;1.97;;;11.60;42.70;;;;;;5066286;28;45327;-69
2023/03/08 01:05:50;;;;;;;3.10;1.80;;;11.50;42.70;;;;;;5077468;28;45544;-68
2023/03/08 01:08:19;;;;;;;2.50;1.90;;;11.60;42.70;;;;;;5086882;28;45443;-68
2023/03/08 01:10:47;;;;;;;3.30;2.00;;;11.60;42.70;;;;;;5086646;28;46417;-68
2023/03/08 01:13:14;;;;;;;2.07;1.80;;;11.50;42.70;;;;;;5086594;28;45362;-68
2023/03/08 01:15:41;;;;;;;1.83;1.73;;;11.50;42.70;;;;;;5086514;28;45261;-68
2023/03/08 01:18:08;;;;;;;1.63;1.53;;;11.50;42.70;;;;;;5086885;28;45183;-68
2023/03/08 01:20:34;;;;;;;2.67;2.00;;;11.50;42.70;;;;;;5086462;28;45327;-68
2023/03/08 01:23:01;;;;;;;3.33;2.13;;;11.50;42.70;;;;;;5086589;28;45383;-68
2023/03/08 01:25:29;;;;;;;1.97;1.77;;;11.50;42.70;;;;;;5086512;28;45444;-68
2023/03/08 01:27:56;;;;;;;2.03;1.80;;;11.50;42.70;;;;;;5086953;28;45443;-68
2023/03/08 01:30:23;;;;;;;2.27;2.07;;;11.50;42.70;;;;;;5086151;28;46677;-68
2023/03/08 01:32:50;;;;;;;2.10;1.70;;;11.50;42.70;;;;;;5086157;28;45340;-68
2023/03/08 01:35:17;;;;;;;2.13;1.93;;;11.50;42.70;;;;;;5085491;27;45233;-68
2023/03/08 01:37:44;;;;;;;1.67;1.57;;;11.50;42.70;;;;;;5086230;28;45641;-68
2023/03/08 01:40:12;;;;;;;1.90;1.70;;;11.50;42.70;;;;;;5086279;28;45462;-68
2023/03/08 01:42:40;;;;;;;1.80;1.57;;;11.50;42.70;;;;;;5085946;28;45292;-68
2023/03/08 01:45:46;;;;;;;1.40;1.30;;;11.40;42.60;;;;;;5086571;28;45185;-68
2023/03/08 01:48:13;;;;;;;2.37;1.73;;;11.40;42.70;;;;;;5087259;28;45342;-68
2023/03/08 01:50:40;;;;;;;2.27;1.60;;;11.40;42.70;;;;;;5085881;28;45288;-68
2023/03/08 01:53:07;;;;;;;1.70;1.60;;;11.40;42.70;;;;;;5085795;28;45321;-68
2023/03/08 01:55:34;;;;;;;2.37;1.70;;;11.40;42.70;;;;;;5086032;28;45258;-68
2023/03/08 01:58:02;;;;;;;1.80;1.60;;;11.40;42.70;;;;;;5086491;28;45319;-68
2023/03/08 02:00:29;;;;;;;3.17;1.73;;;11.40;42.70;;;;;;5085726;28;45519;-68
2023/03/08 02:02:58;;;;;;;1.73;1.47;;;11.40;42.70;;;;;;5085483;28;45405;-68
2023/03/08 02:05:25;;;;;;;2.47;1.70;;;11.40;42.70;;;;;;5085675;28;45154;-68
2023/03/08 02:07:52;;;;;;;1.97;1.67;;;11.30;42.70;;;;;;5086176;28;45180;-68
2023/03/08 02:10:19;;;;;;;1.47;1.37;;;11.40;42.70;;;;;;5085829;28;45537;-68
2023/03/08 02:12:45;;;;;;;2.10;1.63;;;11.40;42.70;;;;;;5085590;28;45360;-68
2023/03/08 02:15:15;;;;;;;1.80;1.50;;;11.30;42.70;;;;;;5085637;28;45397;-68
2023/03/08 02:17:42;;;;;;;2.50;1.60;;;11.30;42.70;;;;;;5086107;28;45127;-68
2023/03/08 02:20:11;;;;;;;2.90;1.57;;;11.30;42.70;;;;;;5085669;28;45442;-68
2023/03/08 02:22:40;;;;;;;1.87;1.57;;;11.30;42.70;;;;;;5085556;28;45368;-68
2023/03/08 02:25:12;;;;;;;1.90;1.70;;;11.30;42.70;;;;;;5085654;28;45205;-69
2023/03/08 02:27:39;;;;;;;1.83;1.63;;;11.30;42.70;;;;;;5085878;28;45404;-68
2023/03/08 02:30:07;;;;;;;2.50;1.47;;;11.30;42.70;;;;;;5085637;28;45307;-68
2023/03/08 02:32:34;;;;;;;1.87;1.30;;;11.30;42.70;;;;;;5085444;28;45328;-69
2023/03/08 02:35:01;;;;;;;1.70;1.30;;;11.30;42.70;;;;;;5086171;28;45385;-68
2023/03/08 02:37:27;;;;;;;2.50;1.57;;;11.30;42.70;;;;;;5086618;28;45395;-68
2023/03/08 02:39:56;;;;;;;1.50;1.40;;;11.30;42.70;;;;;;5085785;28;46413;-68
2023/03/08 02:42:23;;;;;;;2.00;1.60;;;11.30;42.70;;;;;;5085792;28;45230;-68
2023/03/08 02:44:49;;;;;;;2.07;1.47;;;11.30;42.70;;;;;;5085910;28;45383;-68
2023/03/08 02:47:16;;;;;;;1.43;1.33;;;11.30;42.70;;;;;;5089449;28;45400;-68
2023/03/08 02:49:43;;;;;;;2.10;1.67;;;11.20;42.70;;;;;;5089216;28;46398;-68
2023/03/08 02:52:10;;;;;;;1.53;1.40;;;11.20;42.60;;;;;;5088849;28;45205;-68
2023/03/08 02:54:37;;;;;;;2.67;1.70;;;11.20;42.70;;;;;;5088962;28;45258;-67
2023/03/08 02:57:05;;;;;;;1.50;1.40;;;11.20;42.70;;;;;;5089473;28;45233;-68
2023/03/08 02:59:34;;;;;;;1.47;1.37;;;11.20;42.60;;;;;;5089256;28;46341;-68
2023/03/08 03:02:01;;;;;;;2.40;1.50;;;11.20;42.60;;;;;;5089336;28;45325;-68
2023/03/08 03:04:29;;;;;;;2.27;1.63;;;11.20;42.60;;;;;;5089486;28;45261;-68
2023/03/08 03:06:56;;;;;;;2.57;1.70;;;11.20;42.70;;;;;;5069150;28;45366;-68
2023/03/08 03:09:23;;;;;;;2.50;1.70;;;11.20;43.30;;;;;;5068976;28;45376;-67
2023/03/08 03:11:50;;;;;;;2.00;1.63;;;11.20;42.60;;;;;;5069046;28;45143;-68
2023/03/08 03:14:18;;;;;;;2.03;1.50;;;11.20;42.70;;;;;;5068856;28;45287;-68
2023/03/08 03:16:45;;;;;;;1.23;1.13;;;11.20;42.60;;;;;;5068462;28;45503;-69
2023/03/08 03:19:12;;;;;;;3.23;1.60;;;11.20;42.70;;;;;;5068504;28;45313;-68
2023/03/08 03:21:39;;;;;;;1.80;1.57;;;11.20;42.70;;;;;;5068298;28;45416;-68
2023/03/08 03:24:06;;;;;;;1.53;1.43;;;11.20;42.70;;;;;;5068140;28;45266;-68
2023/03/08 03:26:34;;;;;;;1.40;1.30;;;11.20;42.70;;;;;;5068373;28;45347;-68
2023/03/08 03:29:01;;;;;;;2.30;1.67;;;11.10;42.70;;;;;;5067843;28;47601;-68
2023/03/08 03:31:30;;;;;;;1.60;1.30;;;11.10;42.70;;;;;;5067902;28;45374;-68
2023/03/08 03:33:56;;;;;;;1.43;1.33;;;11.10;42.60;;;;;;5068202;28;45269;-68
2023/03/08 03:36:23;;;;;;;1.73;1.27;;;11.10;42.70;;;;;;5068292;28;45385;-68
2023/03/08 03:38:51;;;;;;;2.10;1.63;;;11.10;42.60;;;;;;5067733;28;46682;-67
2023/03/08 03:41:19;;;;;;;2.33;1.63;;;11.10;42.70;;;;;;5067719;28;45330;-68
2023/03/08 03:43:46;;;;;;;1.67;1.50;;;11.10;42.70;;;;;;5068001;28;45318;-68
2023/03/08 03:46:14;;;;;;;2.00;1.47;;;11.10;42.60;;;;;;5067928;28;45181;-68
2023/03/08 03:48:42;;;;;;;1.80;1.70;;;11.10;42.70;;;;;;5067678;28;45352;-68
2023/03/08 03:51:11;;;;;;;1.60;1.33;;;11.10;42.70;;;;;;5067629;28;45302;-68
2023/03/08 03:53:38;;;;;;;1.57;1.10;;;11.10;43.20;;;;;;5067697;28;45328;-68
2023/03/08 03:56:05;;;;;;;2.27;1.53;;;11.10;42.70;;;;;;5067947;28;45592;-68
2023/03/08 03:58:32;;;;;;;1.77;1.40;;;11.10;42.70;;;;;;5066668;28;46376;-68
2023/03/08 04:00:59;;;;;;;1.70;1.60;;;11.10;42.70;;;;;;5067427;28;45312;-69
2023/03/08 04:03:25;;;;;;;1.70;1.40;;;11.10;42.70;;;;;;5067460;28;45315;-68
2023/03/08 04:05:54;;;;;;;1.43;1.33;;;11.10;42.70;;;;;;5079035;28;45353;-68
2023/03/08 04:08:21;;;;;;;1.43;1.33;;;11.10;42.70;;;;;;5087649;28;46601;-68
2023/03/08 04:10:48;;;;;;;1.50;1.40;;;11.10;42.70;;;;;;5087724;28;45471;-68
2023/03/08 04:13:15;;;;;;;1.67;1.20;;;11.10;42.70;;;;;;5087662;28;45316;-68
2023/03/08 04:15:41;;;;;;;2.10;1.57;;;11.10;42.70;;;;;;5087583;28;45563;-68
2023/03/08 04:18:08;;;;;;;2.40;1.40;;;11.10;42.70;;;;;;5087626;28;46255;-68
2023/03/08 04:20:35;;;;;;;1.57;1.47;;;11.10;42.70;;;;;;5087579;28;45254;-68
2023/03/08 04:23:03;;;;;;;1.30;1.20;;;11.10;42.70;;;;;;5087787;28;45426;-68
2023/03/08 04:25:30;;;;;;;1.30;1.20;;;11.10;42.70;;;;;;5087719;28;45373;-68
2023/03/08 04:27:57;;;;;;;1.57;1.20;;;11.10;42.70;;;;;;5087836;28;45214;-68
2023/03/08 04:30:24;;;;;;;1.70;1.60;;;11.10;42.70;;;;;;5087376;28;45323;-69
2023/03/08 04:32:51;;;;;;;1.67;1.40;;;11.10;42.70;;;;;;5087236;28;45340;-68
2023/03/08 04:35:18;;;;;;;2.00;1.40;;;11.10;42.70;;;;;;5087559;28;45400;-68
2023/03/08 04:37:45;;;;;;;1.67;1.30;;;11.10;42.70;;;;;;5087044;28;46419;-68
2023/03/08 04:40:13;;;;;;;2.07;1.50;;;11.10;42.70;;;;;;5087327;28;45201;-68
2023/03/08 04:42:40;;;;;;;1.50;1.37;;;11.10;42.70;;;;;;5087145;28;45254;-68
2023/03/08 04:45:08;;;;;;;2.77;1.60;;;11.10;42.70;;;;;;5087341;28;45395;-68
2023/03/08 04:47:35;;;;;;;1.63;1.53;;;11.10;42.70;;;;;;5086696;28;46348;-68
2023/03/08 04:50:02;;;;;;;2.07;1.47;;;11.10;42.70;;;;;;5086961;28;45430;-68
2023/03/08 04:52:29;;;;;;;2.43;1.33;;;11.10;42.70;;;;;;5087329;28;45251;-69
2023/03/08 04:54:56;;;;;;;1.53;1.23;;;11.10;42.70;;;;;;5087530;28;45309;-68
2023/03/08 04:57:24;;;;;;;1.33;1.07;;;11.10;42.70;;;;;;5086953;28;46349;-69
2023/03/08 04:59:51;;;;;;;1.10;1.10;;;11.10;43.30;;;;;;5086832;28;45292;-68
2023/03/08 05:02:18;;;;;;;2.07;1.30;;;11.00;42.70;;;;;;5086873;28;45251;-68
2023/03/08 05:04:45;;;;;;;1.97;1.33;;;11.00;42.70;;;;;;5086884;28;45243;-69
2023/03/08 05:07:11;;;;;;;1.10;1.00;;;11.10;43.40;;;;;;5086725;28;45229;-68
2023/03/08 05:09:38;;;;;;;1.33;1.23;;;11.00;42.70;;;;;;5086665;27;45443;-68
2023/03/08 05:12:06;;;;;;;1.27;1.17;;;11.10;42.70;;;;;;5086804;28;45436;-68
2023/03/08 05:14:34;;;;;;;1.40;1.30;;;11.10;42.70;;;;;;5086784;28;45499;-68
2023/03/08 05:17:01;;;;;;;1.37;1.20;;;11.10;42.70;;;;;;5086451;28;46426;-68
2023/03/08 05:19:28;;;;;;;1.70;1.27;;;11.10;42.70;;;;;;5086765;28;45328;-68
2023/03/08 05:21:55;;;;;;;1.50;1.40;;;11.10;42.70;;;;;;5086805;28;45348;-68
2023/03/08 05:24:22;;;;;;;1.23;1.13;;;11.10;42.70;;;;;;5086833;28;45483;-68
2023/03/08 05:26:49;;;;;;;0.97;0.97;;;11.10;42.70;;;;;;5086219;28;46394;-68
2023/03/08 05:29:16;;;;;;;1.80;1.43;;;11.00;42.60;;;;;;5086279;28;45245;-68
2023/03/08 05:31:45;;;;;;;1.50;1.40;;;11.10;42.70;;;;;;5086483;28;45311;-68
2023/03/08 05:34:12;;;;;;;1.93;1.40;;;11.10;42.60;;;;;;5086380;28;45409;-68
2023/03/08 05:36:39;;;;;;;1.30;1.10;;;11.10;42.70;;;;;;5086049;28;45257;-68
2023/03/08 05:39:06;;;;;;;1.50;1.13;;;11.00;42.70;;;;;;5083769;28;45284;-66
2023/03/08 05:41:33;;;;;;;1.10;1.00;;;11.10;42.70;;;;;;5086158;28;45382;-68
2023/03/08 05:44:01;;;;;;;1.20;1.10;;;11.00;42.70;;;;;;5086285;28;45451;-66
2023/03/08 05:46:27;;;;;;;1.90;1.50;;;11.10;42.60;;;;;;5086028;28;46341;-68
2023/03/08 05:48:56;;;;;;;1.40;1.30;;;11.10;42.70;;;;;;5086061;28;45273;-66
2023/03/08 05:51:22;;;;;;;1.57;1.27;;;11.10;42.70;;;;;;5086010;28;45329;-67
2023/03/08 05:53:49;;;;;;;1.30;1.20;;;11.00;42.70;;;;;;5086247;28;45375;-69
2023/03/08 05:56:17;;;;;;;1.30;1.20;;;11.00;42.70;;;;;;5085849;28;46397;-68
2023/03/08 05:58:44;;;;;;;0.93;0.90;;;11.10;42.70;;;;;;5085962;28;45408;-67
2023/03/08 06:01:12;;;;;;;1.17;1.07;;;11.10;42.60;;;;;;5085966;28;45209;-67
2023/03/08 06:03:39;;;;;;;1.50;1.40;;;11.10;42.70;;;;;;5086025;28;45375;-67
2023/03/08 06:06:07;;;;;;;1.30;1.20;;;11.10;42.70;;;;;;5085616;28;47308;-69
2023/03/08 06:08:34;;;;;;;1.23;1.00;;;11.10;42.70;;;;;;5086026;28;45380;-69
2023/03/08 06:11:04;;;;;;;1.73;1.30;;;11.10;42.60;;;;;;5085826;28;45249;-68
2023/03/08 06:13:31;;;;;;;1.20;1.20;;;11.10;42.60;;;;;;5086110;28;45390;-69
2023/03/08 06:15:58;;;;;;;1.43;1.13;;;11.10;42.70;;;;;;5085081;28;46260;-68
2023/03/08 06:18:25;;;;;;;1.27;1.17;;;11.10;42.60;;;;;;5085611;28;45263;-69
2023/03/08 06:20:59;;;;;;;1.33;1.20;;;11.10;42.60;;;;;;5085144;28;45274;-69
2023/03/08 06:23:28;;;;;;;1.40;1.30;;;11.10;42.60;;;;;;5085945;28;45280;-69
2023/03/08 06:25:58;;;;;;;1.83;1.43;;;11.10;42.70;;;;;;5085384;28;46338;-68
2023/03/08 06:28:25;;;;;;;1.50;1.13;;;11.10;42.70;;;;;;5085604;28;46275;-69
2023/03/08 06:30:52;;;;;;;1.50;1.40;;;11.00;42.60;;;;;;5085649;28;45315;-68
2023/03/08 06:33:19;;;;;;;1.63;1.40;;;11.10;42.70;;;;;;5085935;28;45480;-69
2023/03/08 06:35:55;;;;;;;1.43;1.17;;;11.10;42.70;;;;;;5085208;28;45406;-69
2023/03/08 06:38:22;;;;;;;1.80;1.30;;;11.10;42.60;;;;;;5085670;28;45446;-69
2023/03/08 06:40:50;;;;;;;1.50;1.40;;;11.00;42.60;;;;;;5085674;28;45205;-69
2023/03/08 06:43:17;;;;;;;1.63;1.40;;;11.00;42.60;;;;;;5085568;28;45448;-68
2023/03/08 06:45:44;;;;;;;2.37;1.50;;;11.10;42.70;;;;;;5085264;28;45645;-69
2023/03/08 06:48:11;;;;;;;1.53;1.23;;;11.00;42.60;;;;;;5085191;28;45521;-69
2023/03/08 06:50:37;;;;;;;1.43;1.33;;;11.10;42.70;;;;;;5085661;28;45497;-69
2023/03/08 06:53:04;;;;;;;1.30;1.20;;;11.00;42.60;;;;;;5085527;28;45171;-69
2023/03/08 06:55:31;;;;;;;1.17;1.10;;;11.00;42.60;;;;;;5085078;28;45192;-69
2023/03/08 06:58:00;;;;;;;1.27;1.10;;;11.10;42.60;;;;;;5085157;28;45262;-69
2023/03/08 07:00:27;;;;;;;1.87;1.07;;;11.10;42.60;;;;;;5085322;28;45383;-68
2023/03/08 07:02:54;;;;;;;1.57;1.47;;;11.10;42.60;;;;;;5085309;28;45309;-68
2023/03/08 07:05:21;;;;;;;1.70;1.50;;;11.10;42.60;;;;;;5084814;28;47289;-69
2023/03/08 07:07:48;;;;;;;1.20;1.10;;;11.00;42.60;;;;;;5085277;28;45264;-69
2023/03/08 07:10:19;;;;;;;1.23;0.90;;;11.10;42.60;;;;;;5085234;28;45368;-69
2023/03/08 07:12:47;;;;;;;1.37;1.27;;;11.00;42.60;;;;;;5085212;28;45225;-69
2023/03/08 07:15:17;;;;;;;1.20;1.10;;;11.00;42.60;;;;;;5084551;28;46389;-69
2023/03/08 07:17:44;;;;;;;1.17;1.10;;;11.10;42.60;;;;;;5085076;28;45483;-68
2023/03/08 07:20:12;;;;;;;1.63;1.40;;;11.10;42.60;;;;;;5085154;28;45190;-69
2023/03/08 07:22:40;;;;;;;1.27;1.00;;;11.10;42.60;;;;;;5085199;28;45554;-69
2023/03/08 07:25:08;;;;;;;1.40;1.30;;;11.10;42.60;;;;;;5084885;28;45537;-69
2023/03/08 07:27:35;;;;;;;1.40;1.23;;;11.10;42.60;;;;;;5084769;28;45413;-69
2023/03/08 07:30:02;;;;;;;1.73;1.17;;;11.00;42.50;;;;;;5085007;28;45314;-69
2023/03/08 07:32:30;;;;;;;1.43;1.23;;;11.10;42.60;;;;;;5086076;28;45372;-68
2023/03/08 07:34:57;;;;;;;1.50;1.40;;;11.10;42.60;;;;;;5088229;28;45350;-68
2023/03/08 07:37:24;;;;;;;1.30;1.20;;;11.10;42.60;;;;;;5088316;28;45321;-68
2023/03/08 07:39:51;;;;;;;2.37;1.50;;;11.10;42.60;;;;;;5088485;28;45336;-68
2023/03/08 07:42:18;;;;;;;1.40;1.30;;;11.10;42.60;;;;;;5088392;28;45345;-68
2023/03/08 07:44:45;;;;;;;2.43;1.60;;;11.10;42.60;;;;;;5087986;28;46652;-68
2023/03/08 07:47:12;;;;;;;1.53;1.30;;;11.10;42.50;;;;;;5088018;28;45359;-68
2023/03/08 07:49:40;;;;;;;2.40;1.20;;;11.10;42.60;;;;;;5088455;28;45427;-68
2023/03/08 07:52:07;;;;;;;1.87;1.30;;;11.10;42.60;;;;;;5088208;28;45380;-68
2023/03/08 07:54:34;;;;;;;2.60;1.30;;;11.10;42.50;;;;;;5088029;28;45339;-68
2023/03/08 07:57:01;;;;;;;1.33;1.23;;;11.10;42.50;;;;;;5087891;28;45327;-68
2023/03/08 07:59:28;;;;;;;1.33;1.10;;;11.10;42.50;;;;;;5088370;28;45376;-68
2023/03/08 08:01:55;;;;;;;1.23;1.13;;;11.10;42.50;;;;;;5088066;28;45308;-68
2023/03/08 08:04:22;;;;;;;1.30;1.20;;;11.10;42.60;;;;;;5087654;28;46484;-67
2023/03/08 08:06:50;;;;;;;2.50;1.30;;;11.20;42.70;;;;;;5085293;28;45254;-67
2023/03/08 08:09:17;;;;;;;2.47;1.37;;;11.20;42.50;;;;;;5087745;28;45333;-66
2023/03/08 08:11:44;;;;;;;1.30;1.20;;;11.20;42.50;;;;;;5085428;28;45396;-67
2023/03/08 08:14:11;;;;;;;1.40;1.20;;;11.20;42.50;;;;;;5087911;28;45306;-67
2023/03/08 08:16:37;;;;;;;1.27;0.97;;;11.20;42.50;;;;;;5087427;28;45269;-67
2023/03/08 08:19:05;;;;;;;0.90;0.90;;;11.20;42.50;;;;;;5087939;28;45246;-67
2023/03/08 08:21:31;;;;;;;1.83;1.20;;;11.20;42.50;;;;;;5087699;28;45524;-68
2023/03/08 08:24:00;;;;;;;1.50;1.10;;;11.20;42.50;;;;;;5087502;28;47317;-68
2023/03/08 08:26:27;;;;;;;1.43;0.93;;;11.20;42.50;;;;;;5087462;28;45312;-68
2023/03/08 08:28:54;;;;;;;2.57;1.20;;;11.20;42.50;;;;;;5087456;28;45277;-68
2023/03/08 08:31:22;;;;;;;1.20;1.10;;;11.20;42.60;;;;;;5087808;28;45376;-69
2023/03/08 08:33:49;;;;;;;1.03;1.03;;;11.30;42.60;;;;;;5087224;28;46375;-67
2023/03/08 08:36:16;;;;;;;4.17;1.00;;;11.20;43.10;;;;;;5087441;28;45229;-68
2023/03/08 08:38:44;;;;;;;3.17;1.33;;;11.30;43.40;;;;;;5087287;28;45261;-68
2023/03/08 08:41:14;;;;;;;1.23;1.13;;;11.20;42.60;;;;;;5087416;28;45716;-69
2023/03/08 08:43:42;;;;;;;1.10;1.00;;;11.20;42.70;;;;;;5086598;28;47567;-67
2023/03/08 08:46:09;;;;;;;1.30;1.20;;;11.20;42.60;;;;;;5087121;28;45170;-68
2023/03/08 08:48:37;;;;;;;1.10;1.00;;;11.20;42.60;;;;;;5087313;28;45522;-68
2023/03/08 08:51:04;;;;;;;2.43;1.10;;;11.30;42.70;;;;;;5087489;28;45455;-68
2023/03/08 08:53:31;;;;;;;1.33;1.00;;;11.20;42.90;;;;;;5087048;28;45351;-67
2023/03/08 08:55:58;;;;;;;1.10;1.10;;;11.20;42.80;;;;;;5086926;28;45205;-68
2023/03/08 08:58:26;;;;;;;0.90;0.90;;;11.20;42.70;;;;;;5087007;28;45222;-68
2023/03/08 09:00:53;;;;;;;1.00;1.00;;;11.20;42.80;;;;;;5087313;28;45430;-68
2023/03/08 09:03:20;;;;;;;0.80;0.80;;;11.30;42.90;;;;;;5086763;28;46362;-68
2023/03/08 09:05:46;;;;;;;1.10;1.00;;;11.30;42.90;;;;;;5086985;28;45349;-68
2023/03/08 09:08:13;;;;;;;1.40;1.27;;;11.30;42.90;;;;;;5084313;28;45278;-68
2023/03/08 09:10:40;;;;;;;1.00;0.90;;;11.30;42.90;;;;;;5087174;28;45340;-68
2023/03/08 09:13:07;;;;;;;3.07;1.30;;;11.30;42.90;;;;;;5086502;28;45408;-68
2023/03/08 09:15:36;;;;;;;2.20;1.17;;;11.30;42.90;;;;;;5086152;28;45437;-68
2023/03/08 09:18:03;;;;;;;0.83;0.80;;;11.30;43.00;;;;;;5086906;28;45388;-68
2023/03/08 09:20:30;;;;;;;2.83;1.27;;;11.30;42.90;;;;;;5086992;28;45169;-68
2023/03/08 09:22:57;;;;;;;2.97;1.00;;;11.40;43.00;;;;;;5083740;28;45308;-68
2023/03/08 09:25:24;;;;;;;1.73;1.00;;;11.40;43.10;;;;;;5086592;28;45380;-68
2023/03/08 09:27:51;;;;;;;1.33;1.00;;;11.40;43.00;;;;;;5086805;28;45373;-68
2023/03/08 09:30:17;;;;;;;1.97;1.10;;;11.40;43.00;;;;;;5086724;28;45337;-68
2023/03/08 09:32:46;;;;;;;1.00;1.00;;;11.40;43.00;;;;;;5086152;28;46313;-68
2023/03/08 09:35:14;;;;;;;1.07;0.90;;;11.40;42.90;;;;;;5086514;28;45387;-68
2023/03/08 09:37:41;;;;;;;1.03;0.93;;;11.40;43.10;;;;;;5086552;28;45390;-68
2023/03/08 09:40:11;;;;;;;2.03;1.20;;;11.40;43.10;;;;;;5086692;28;45235;-68
2023/03/08 09:42:38;;;;;;;0.73;0.73;;;11.40;42.90;;;;;;5086131;28;45538;-68
2023/03/08 09:45:14;;;;;;;1.10;1.00;;;11.40;43.00;;;;;;5086250;28;45327;-68
2023/03/08 09:47:48;;;;;;;2.60;1.30;;;11.40;43.00;;;;;;5086102;28;45349;-67
2023/03/08 09:50:25;;;;;;;2.00;1.20;;;11.40;43.10;;;;;;5086448;28;45282;-67
2023/03/08 09:52:56;;;;;;;1.23;1.00;;;11.40;43.10;;;;;;5085895;28;45375;-68
2023/03/08 09:55:28;;;;;;;2.10;0.87;;;11.40;43.10;;;;;;5085174;27;45371;-68
2023/03/08 09:57:56;;;;;;;1.47;1.23;;;11.50;43.20;;;;;;5086214;28;45231;-68
2023/03/08 10:00:26;;;;;;;2.80;1.20;;;11.50;43.20;;;;;;5086343;28;45376;-68
2023/03/08 10:03:14;;;;;;;1.13;0.87;;;11.50;43.10;;;;;;5085713;28;46292;-68
2023/03/08 10:05:42;;;;;;;0.80;0.80;;;11.50;43.10;;;;;;5085808;28;45214;-68
2023/03/08 10:08:16;;;;;;;1.10;1.00;;;11.50;43.10;;;;;;5086109;28;45432;-68
2023/03/08 10:10:49;;;;;;;2.03;1.10;;;11.50;43.10;;;;;;5086027;28;45399;-68
2023/03/08 10:13:36;;;;;;;2.97;1.10;;;11.50;43.10;;;;;;5085541;28;46343;-68
2023/03/08 10:16:06;;;;;;;2.10;1.00;;;11.60;43.10;;;;;;5085420;28;45427;-68
2023/03/08 10:18:40;;;;;;;0.97;0.97;;;11.60;43.10;;;;;;5086248;28;45386;-68
2023/03/08 10:21:11;;;;;;;2.07;1.10;;;11.60;43.10;;;;;;5086001;28;45215;-68
2023/03/08 10:23:40;;;;;;;1.90;1.30;;;11.60;43.10;;;;;;5085501;28;45505;-68
2023/03/08 10:26:12;;;;;;;1.43;1.20;;;11.60;43.20;;;;;;5085417;28;45277;-68
2023/03/08 10:28:39;;;;;;;2.07;0.90;;;11.70;43.20;;;;;;5085894;28;45360;-68
2023/03/08 10:31:24;;;;;;;1.57;0.90;;;11.70;43.40;;;;;;5086256;28;44891;-68
2023/03/08 10:33:56;;;;;;;1.50;1.30;;;11.70;43.50;;;;;;5085457;28;46975;-68
2023/03/08 10:36:23;;;;;;;2.20;1.17;;;11.70;43.50;;;;;;5085645;28;45331;-68
2023/03/08 10:38:58;;;;;;;1.30;1.20;;;11.70;43.40;;;;;;5085986;28;45329;-68
2023/03/08 10:41:31;;;;;;;1.67;1.00;;;11.70;43.50;;;;;;5085651;28;45347;-68
2023/03/08 10:43:58;;;;;;;1.10;1.00;;;11.80;43.50;;;;;;5085442;28;45331;-68
2023/03/08 10:46:27;;;;;;;1.77;0.93;;;11.80;43.50;;;;;;5085256;28;45321;-68
2023/03/08 10:48:55;;;;;;;1.33;1.00;;;11.80;43.40;;;;;;5085461;28;45317;-67
2023/03/08 10:51:23;;;;;;;2.73;1.20;;;11.80;43.50;;;;;;5084279;28;45346;-68
2023/03/08 10:53:54;;;;;;;2.07;1.53;;;11.80;43.40;;;;;;5084912;28;45305;-68
2023/03/08 10:56:24;;;;;;;1.37;1.00;;;11.80;43.60;;;;;;5085240;28;45254;-68
2023/03/08 10:58:54;;;;;;;2.07;1.30;;;11.90;43.60;;;;;;5085372;28;45325;-68
2023/03/08 11:01:25;;;;;;;2.17;1.10;;;11.80;43.60;;;;;;5085595;28;45261;-68
2023/03/08 11:04:00;;;;;;;1.07;0.93;;;11.80;43.60;;;;;;5084884;28;46410;-68
2023/03/08 11:06:27;;;;;;;2.80;0.90;;;11.80;43.70;;;;;;5086060;27;45203;-68
2023/03/08 11:08:56;;;;;;;2.43;1.13;;;11.90;43.60;;;;;;5088874;28;45260;-67
2023/03/08 11:11:23;;;;;;;1.00;0.87;;;11.90;43.50;;;;;;5089089;28;45131;-68
2023/03/08 11:13:50;;;;;;;1.93;1.00;;;11.90;43.70;;;;;;5088622;28;47581;-68
2023/03/08 11:16:36;;;;;;;1.20;1.10;;;11.90;43.60;;;;;;5088223;28;45439;-67
2023/03/08 11:19:11;;;;;;;0.90;0.90;;;11.90;43.60;;;;;;5088532;28;45261;-68
2023/03/08 11:21:44;;;;;;;1.60;1.20;;;11.90;43.50;;;;;;5089198;28;45273;-68
2023/03/08 11:24:23;;;;;;;1.80;1.27;;;11.90;43.60;;;;;;5088479;28;45431;-68
2023/03/08 11:26:55;;;;;;;0.83;0.77;;;11.90;43.60;;;;;;5088599;28;45202;-68
2023/03/08 11:29:29;;;;;;;0.87;0.83;;;11.90;43.60;;;;;;5088547;28;45314;-68
2023/03/08 11:31:59;;;;;;;2.00;0.93;;;11.90;43.60;;;;;;5088767;28;45310;-69
2023/03/08 11:34:54;;;;;;;2.13;1.13;;;12.00;43.60;;;;;;5088073;28;46615;-68
2023/03/08 11:37:25;;;;;;;1.00;0.87;;;12.00;43.60;;;;;;5088767;28;45314;-68
2023/03/08 11:39:54;;;;;;;1.20;0.90;;;12.00;43.60;;;;;;5088584;28;45357;-68
2023/03/08 11:42:25;;;;;;;1.07;1.03;;;12.00;43.50;;;;;;5088803;28;45404;-68
2023/03/08 11:45:05;;;;;;;3.70;0.93;;;12.00;43.50;;;;;;5088637;28;46367;-68
2023/03/08 11:48:06;;;;;;;1.67;1.00;;;12.10;43.50;;;;;;5088900;28;45192;-68
2023/03/08 11:50:36;;;;;;;1.80;1.00;;;12.10;43.90;;;;;;5088939;28;45272;-68
2023/03/08 11:53:17;;;;;;;1.90;1.03;;;12.10;43.60;;;;;;5088996;28;45313;-68
2023/03/08 11:55:58;;;;;;;0.80;0.80;;;12.10;43.70;;;;;;5088619;28;46735;-68
2023/03/08 11:58:28;;;;;;;1.23;0.90;;;12.10;43.80;;;;;;5088489;28;45395;-68
2023/03/08 12:00:56;;;;;;;1.53;1.00;;;12.10;43.90;;;;;;5088482;28;45244;-68
2023/03/08 12:03:25;;;;;;;2.10;0.90;;;12.10;43.70;;;;;;5088562;28;45318;-68
2023/03/08 12:05:54;;;;;;;1.90;0.90;;;12.20;43.80;;;;;;5088431;28;45375;-68
2023/03/08 12:08:24;;;;;;;1.90;1.03;;;12.20;43.90;;;;;;5088214;28;45312;-68
2023/03/08 12:10:55;;;;;;;1.57;1.00;;;12.20;44.00;;;;;;5088309;28;45295;-68
2023/03/08 12:13:24;;;;;;;1.23;0.80;;;12.20;44.00;;;;;;5088524;28;45280;-68
2023/03/08 12:15:54;;;;;;;5.30;0.80;;;12.20;44.00;;;;;;5087964;28;45356;-68
2023/03/08 12:18:23;;;;;;;1.10;1.00;;;12.30;44.00;;;;;;5087231;27;45258;-69
2023/03/08 12:20:50;;;;;;;2.40;1.17;;;12.30;44.10;;;;;;5088469;28;45337;-69
2023/03/08 12:23:24;;;;;;;1.53;1.00;;;12.30;44.10;;;;;;5089164;28;45403;-68
2023/03/08 12:25:58;;;;;;;0.80;0.80;;;12.30;44.10;;;;;;5088206;28;46324;-67
2023/03/08 12:28:26;;;;;;;0.70;0.70;;;12.30;44.10;;;;;;5088024;28;45301;-67
2023/03/08 12:31:01;;;;;;;0.87;0.77;;;12.40;44.50;;;;;;5087619;28;45352;-67
2023/03/08 12:33:29;;;;;;;2.17;0.97;;;12.40;44.30;;;;;;5087562;28;45357;-67
2023/03/08 12:35:57;;;;;;;0.70;0.70;;;12.40;44.40;;;;;;5087212;28;47782;-68
2023/03/08 12:38:48;;;;;;;0.70;0.70;;;12.40;44.80;;;;;;5087587;28;45541;-67
2023/03/08 12:41:24;;;;;;;0.60;0.60;;;12.40;44.90;;;;;;5087576;28;45301;-68
2023/03/08 12:44:02;;;;;;;0.90;0.73;;;12.40;45.60;;;;;;5087533;28;45245;-68
2023/03/08 12:46:29;;;;;;;0.70;0.70;;;12.40;45.00;;;;;;5087488;28;45399;-68
2023/03/08 12:48:56;;;;;;;1.00;0.90;;;12.40;45.10;;;;;;5086594;28;44951;-68
2023/03/08 12:51:25;;;;;;;0.80;0.70;;;12.40;45.10;;;;;;5087131;28;45300;-68
2023/03/08 12:53:59;;;;;;;1.50;0.90;;;12.50;45.20;;;;;;5087118;28;45392;-68
2023/03/08 12:56:29;;;;;;;3.37;1.17;;;12.50;45.30;;;;;;5086722;28;45318;-68